sensor_id;sensor_type;location;lat;lon;timestamp;pressure;altitude;pressure_sealevel;temperature;humidity
15750;BME280;7976;52.526;13.326;2022-07-10T00:02:19;101541.19;;;15.80;65.81
15750;BME280;7976;52.526;13.326;2022-07-10T00:04:46;101535.91;;;15.80;65.39
15750;BME280;7976;52.526;13.326;2022-07-10T00:07:13;101538.53;;;15.80;65.59
15750;BME280;7976;52.526;13.326;2022-07-10T00:09:41;101537.69;;;15.80;65.51
15750;BME280;7976;52.526;13.326;2022-07-10T00:12:08;101533.19;;;15.82;65.72
15750;BME280;7976;52.526;13.326;2022-07-10T00:14:35;101538.47;;;15.82;65.67
15750;BME280;7976;52.526;13.326;2022-07-10T00:17:02;101532.19;;;15.84;65.47
15750;BME280;7976;52.526;13.326;2022-07-10T00:19:29;101545.19;;;15.89;65.54
15750;BME280;7976;52.526;13.326;2022-07-10T00:21:56;101538.97;;;15.90;65.52
15750;BME280;7976;52.526;13.326;2022-07-10T00:24:23;101524.19;;;15.86;65.72
15750;BME280;7976;52.526;13.326;2022-07-10T00:26:51;101533.03;;;15.85;65.68
15750;BME280;7976;52.526;13.326;2022-07-10T00:29:18;101530.41;;;15.85;65.60
15750;BME280;7976;52.526;13.326;2022-07-10T00:31:44;101535.53;;;15.88;66.07
15750;BME280;7976;52.526;13.326;2022-07-10T00:34:11;101535.53;;;15.88;65.75
15750;BME280;7976;52.526;13.326;2022-07-10T00:36:38;101533.84;;;15.87;65.78
15750;BME280;7976;52.526;13.326;2022-07-10T00:39:05;101522.34;;;15.88;65.70
15750;BME280;7976;52.526;13.326;2022-07-10T00:41:32;101524.19;;;15.86;66.12
15750;BME280;7976;52.526;13.326;2022-07-10T00:44:02;101520.78;;;15.84;65.92
15750;BME280;7976;52.526;13.326;2022-07-10T00:46:31;101524.31;;;15.83;66.03
15750;BME280;7976;52.526;13.326;2022-07-10T00:48:58;101521.84;;;15.80;65.97
15750;BME280;7976;52.526;13.326;2022-07-10T00:51:27;101514.72;;;15.82;66.06
15750;BME280;7976;52.526;13.326;2022-07-10T00:53:56;101512.94;;;15.82;65.95
15750;BME280;7976;52.526;13.326;2022-07-10T00:56:26;101508.50;;;15.83;65.96
15750;BME280;7976;52.526;13.326;2022-07-10T00:58:53;101505.84;;;15.83;65.77
15750;BME280;7976;52.526;13.326;2022-07-10T01:01:22;101509.44;;;15.82;65.84
15750;BME280;7976;52.526;13.326;2022-07-10T01:03:50;101497.13;;;15.81;66.03
15750;BME280;7976;52.526;13.326;2022-07-10T01:06:17;101493.66;;;15.80;66.02
15750;BME280;7976;52.526;13.326;2022-07-10T01:08:45;101489.22;;;15.81;65.88
15750;BME280;7976;52.526;13.326;2022-07-10T01:11:14;101484.81;;;15.81;65.92
15750;BME280;7976;52.526;13.326;2022-07-10T01:13:42;101489.22;;;15.81;66.01
15750;BME280;7976;52.526;13.326;2022-07-10T01:16:10;101487.53;;;15.80;66.20
15750;BME280;7976;52.526;13.326;2022-07-10T01:18:38;101488.38;;;15.80;66.13
15750;BME280;7976;52.526;13.326;2022-07-10T01:21:23;101486.72;;;15.78;66.11
15750;BME280;7976;52.526;13.326;2022-07-10T01:23:50;101483.25;;;15.77;66.11
15750;BME280;7976;52.526;13.326;2022-07-10T01:26:18;101485.94;;;15.76;66.51
15750;BME280;7976;52.526;13.326;2022-07-10T01:28:49;101481.53;;;15.76;66.20
15750;BME280;7976;52.526;13.326;2022-07-10T01:31:17;101473.69;;;15.75;66.28
15750;BME280;7976;52.526;13.326;2022-07-10T01:33:44;101475.44;;;15.74;66.24
15750;BME280;7976;52.526;13.326;2022-07-10T01:36:13;101480.88;;;15.71;66.67
15750;BME280;7976;52.526;13.326;2022-07-10T01:38:40;101487.09;;;15.70;66.61
15750;BME280;7976;52.526;13.326;2022-07-10T01:41:07;101477.38;;;15.71;66.76
15750;BME280;7976;52.526;13.326;2022-07-10T01:43:35;101471.34;;;15.69;66.60
15750;BME280;7976;52.526;13.326;2022-07-10T01:46:02;101472.31;;;15.66;66.85
15750;BME280;7976;52.526;13.326;2022-07-10T01:48:30;101471.69;;;15.61;67.14
15750;BME280;7976;52.526;13.326;2022-07-10T01:50:57;101475.19;;;15.62;67.36
15750;BME280;7976;52.526;13.326;2022-07-10T01:53:25;101479.66;;;15.60;67.09
15750;BME280;7976;52.526;13.326;2022-07-10T01:55:52;101488.53;;;15.59;67.30
15750;BME280;7976;52.526;13.326;2022-07-10T01:58:19;101490.38;;;15.57;67.27
15750;BME280;7976;52.526;13.326;2022-07-10T02:00:46;101490.38;;;15.57;67.14
15750;BME280;7976;52.526;13.326;2022-07-10T02:03:13;101483.44;;;15.54;67.36
15750;BME280;7976;52.526;13.326;2022-07-10T02:05:57;101486.06;;;15.54;67.22
15750;BME280;7976;52.526;13.326;2022-07-10T02:08:25;101486.00;;;15.56;67.30
15750;BME280;7976;52.526;13.326;2022-07-10T02:10:52;101485.09;;;15.57;67.16
15750;BME280;7976;52.526;13.326;2022-07-10T02:13:20;101490.38;;;15.57;67.27
15750;BME280;7976;52.526;13.326;2022-07-10T02:15:47;101486.94;;;15.55;67.63
15750;BME280;7976;52.526;13.326;2022-07-10T02:18:14;101487.00;;;15.53;67.62
15750;BME280;7976;52.526;13.326;2022-07-10T02:20:40;101485.44;;;15.49;67.89
15750;BME280;7976;52.526;13.326;2022-07-10T02:23:07;101478.53;;;15.47;68.33
15750;BME280;7976;52.526;13.326;2022-07-10T02:25:36;101475.09;;;15.45;68.33
15750;BME280;7976;52.526;13.326;2022-07-10T02:28:03;101488.34;;;15.43;68.71
15750;BME280;7976;52.526;13.326;2022-07-10T02:30:31;101485.78;;;15.42;68.82
15750;BME280;7976;52.526;13.326;2022-07-10T02:32:58;101481.38;;;15.42;69.36
15750;BME280;7976;52.526;13.326;2022-07-10T02:35:25;101481.50;;;15.39;69.35
15750;BME280;7976;52.526;13.326;2022-07-10T02:37:52;101480.72;;;15.36;69.32
15750;BME280;7976;52.526;13.326;2022-07-10T02:40:19;101468.63;;;15.32;69.69
15750;BME280;7976;52.526;13.326;2022-07-10T02:42:47;101475.66;;;15.31;69.34
15750;BME280;7976;52.526;13.326;2022-07-10T02:45:14;101484.53;;;15.30;69.40
15750;BME280;7976;52.526;13.326;2022-07-10T02:47:40;101477.72;;;15.25;69.67
15750;BME280;7976;52.526;13.326;2022-07-10T02:50:09;101477.88;;;15.22;69.76
15750;BME280;7976;52.526;13.326;2022-07-10T02:52:36;101466.59;;;15.18;69.77
15750;BME280;7976;52.526;13.326;2022-07-10T02:55:03;101469.31;;;15.17;69.73
15750;BME280;7976;52.526;13.326;2022-07-10T02:57:30;101469.31;;;15.17;70.01
15750;BME280;7976;52.526;13.326;2022-07-10T02:59:58;101476.44;;;15.15;69.77
15750;BME280;7976;52.526;13.326;2022-07-10T03:02:25;101477.41;;;15.12;70.03
15750;BME280;7976;52.526;13.326;2022-07-10T03:04:52;101472.00;;;15.15;70.05
15750;BME280;7976;52.526;13.326;2022-07-10T03:07:19;101470.22;;;15.16;70.11
15750;BME280;7976;52.526;13.326;2022-07-10T03:09:46;101460.59;;;15.15;70.29
15750;BME280;7976;52.526;13.326;2022-07-10T03:12:12;101467.72;;;15.13;70.36
15750;BME280;7976;52.526;13.326;2022-07-10T03:14:39;101467.78;;;15.11;70.46
15750;BME280;7976;52.526;13.326;2022-07-10T03:17:07;101472.00;;;15.15;70.53
15750;BME280;7976;52.526;13.326;2022-07-10T03:19:34;101469.31;;;15.17;70.36
15750;BME280;7976;52.526;13.326;2022-07-10T03:22:01;101472.84;;;15.16;70.47
15750;BME280;7976;52.526;13.326;2022-07-10T03:24:28;101470.34;;;15.13;70.43
15750;BME280;7976;52.526;13.326;2022-07-10T03:26:55;101461.56;;;15.12;70.69
15750;BME280;7976;52.526;13.326;2022-07-10T03:29:22;101464.28;;;15.10;70.72
15750;BME280;7976;52.526;13.326;2022-07-10T03:31:48;101468.66;;;15.12;71.10
15750;BME280;7976;52.526;13.326;2022-07-10T03:34:17;101465.09;;;15.13;70.73
15750;BME280;7976;52.526;13.326;2022-07-10T03:36:43;101464.03;;;15.17;71.42
15750;BME280;7976;52.526;13.326;2022-07-10T03:39:10;101455.97;;;15.20;71.39
15750;BME280;7976;52.526;13.326;2022-07-10T03:41:37;101457.69;;;15.21;71.31
15750;BME280;7976;52.526;13.326;2022-07-10T03:44:04;101456.97;;;15.17;71.53
15750;BME280;7976;52.526;13.326;2022-07-10T03:46:32;101457.03;;;15.16;71.51
15750;BME280;7976;52.526;13.326;2022-07-10T03:48:59;101458.03;;;15.13;71.49
15750;BME280;7976;52.526;13.326;2022-07-10T03:51:27;101458.03;;;15.13;71.67
15750;BME280;7976;52.526;13.326;2022-07-10T03:53:53;101458.94;;;15.12;72.08
15750;BME280;7976;52.526;13.326;2022-07-10T03:56:20;101451.09;;;15.10;72.05
15750;BME280;7976;52.526;13.326;2022-07-10T03:59:05;101458.19;;;15.10;72.12
15750;BME280;7976;52.526;13.326;2022-07-10T04:01:32;101454.53;;;15.13;72.08
15750;BME280;7976;52.526;13.326;2022-07-10T04:03:59;101452.75;;;15.13;72.50
15750;BME280;7976;52.526;13.326;2022-07-10T04:06:28;101448.34;;;15.14;72.45
15750;BME280;7976;52.526;13.326;2022-07-10T04:08:55;101452.69;;;15.15;72.42
15750;BME280;7976;52.526;13.326;2022-07-10T04:11:22;101452.69;;;15.15;72.69
15750;BME280;7976;52.526;13.326;2022-07-10T04:13:49;101457.97;;;15.15;72.63
15750;BME280;7976;52.526;13.326;2022-07-10T04:16:15;101456.13;;;15.17;72.59
15750;BME280;7976;52.526;13.326;2022-07-10T04:18:43;101456.13;;;15.17;72.61
15750;BME280;7976;52.526;13.326;2022-07-10T04:21:09;101458.75;;;15.17;72.86
15750;BME280;7976;52.526;13.326;2022-07-10T04:23:37;101453.50;;;15.17;72.31
15750;BME280;7976;52.526;13.326;2022-07-10T04:26:04;101459.88;;;15.11;72.52
15750;BME280;7976;52.526;13.326;2022-07-10T04:28:31;101456.53;;;15.07;73.00
15750;BME280;7976;52.526;13.326;2022-07-10T04:30:58;101455.72;;;15.05;73.08
15750;BME280;7976;52.526;13.326;2022-07-10T04:33:25;101452.19;;;15.06;72.93
15750;BME280;7976;52.526;13.326;2022-07-10T04:35:52;101448.53;;;15.09;73.20
15750;BME280;7976;52.526;13.326;2022-07-10T04:38:19;101455.47;;;15.12;73.26
15750;BME280;7976;52.526;13.326;2022-07-10T04:40:47;101447.50;;;15.13;73.13
15750;BME280;7976;52.526;13.326;2022-07-10T04:43:14;101448.28;;;15.15;73.14
15750;BME280;7976;52.526;13.326;2022-07-10T04:45:41;101443.84;;;15.16;72.88
15750;BME280;7976;52.526;13.326;2022-07-10T04:48:08;101447.34;;;15.16;73.05
15750;BME280;7976;52.526;13.326;2022-07-10T04:50:34;101437.66;;;15.17;72.87
15750;BME280;7976;52.526;13.326;2022-07-10T04:53:01;101447.22;;;15.19;73.12
15750;BME280;7976;52.526;13.326;2022-07-10T04:55:28;101442.50;;;15.26;73.00
15750;BME280;7976;52.526;13.326;2022-07-10T04:57:56;101445.78;;;15.31;72.91
15750;BME280;7976;52.526;13.326;2022-07-10T05:00:23;101449.38;;;15.30;72.84
15750;BME280;7976;52.526;13.326;2022-07-10T05:02:50;101446.88;;;15.27;72.63
15750;BME280;7976;52.526;13.326;2022-07-10T05:05:17;101442.50;;;15.26;72.89
15750;BME280;7976;52.526;13.326;2022-07-10T05:07:44;101444.25;;;15.27;72.90
15750;BME280;7976;52.526;13.326;2022-07-10T05:10:10;101445.16;;;15.26;72.92
15750;BME280;7976;52.526;13.326;2022-07-10T05:12:37;101446.09;;;15.25;73.07
15750;BME280;7976;52.526;13.326;2022-07-10T05:15:07;101448.66;;;15.26;73.24
15750;BME280;7976;52.526;13.326;2022-07-10T05:17:34;101447.66;;;15.29;72.98
15750;BME280;7976;52.526;13.326;2022-07-10T05:20:01;101441.47;;;15.30;72.92
15750;BME280;7976;52.526;13.326;2022-07-10T05:22:28;101441.53;;;15.28;73.20
15750;BME280;7976;52.526;13.326;2022-07-10T05:24:56;101440.53;;;15.31;72.92
15750;BME280;7976;52.526;13.326;2022-07-10T05:27:23;101435.97;;;15.34;72.94
15750;BME280;7976;52.526;13.326;2022-07-10T05:29:51;101439.22;;;15.41;73.09
15750;BME280;7976;52.526;13.326;2022-07-10T05:32:19;101443.50;;;15.43;72.61
15750;BME280;7976;52.526;13.326;2022-07-10T05:34:45;101439.84;;;15.46;72.75
15750;BME280;7976;52.526;13.326;2022-07-10T05:37:12;101446.78;;;15.48;72.89
15750;BME280;7976;52.526;13.326;2022-07-10T05:39:39;101438.56;;;15.54;72.71
15750;BME280;7976;52.526;13.326;2022-07-10T05:42:06;101446.38;;;15.57;72.53
15750;BME280;7976;52.526;13.326;2022-07-10T05:44:32;101440.88;;;15.62;72.58
15750;BME280;7976;52.526;13.326;2022-07-10T05:46:59;101446.00;;;15.65;72.55
15750;BME280;7976;52.526;13.326;2022-07-10T05:49:27;101437.16;;;15.66;72.41
15750;BME280;7976;52.526;13.326;2022-07-10T05:51:54;101429.19;;;15.67;72.19
15750;BME280;7976;52.526;13.326;2022-07-10T05:54:21;101447.50;;;15.70;72.17
15750;BME280;7976;52.526;13.326;2022-07-10T05:56:48;101444.09;;;15.68;71.96
15750;BME280;7976;52.526;13.326;2022-07-10T05:59:14;101447.66;;;15.67;72.11
15750;BME280;7976;52.526;13.326;2022-07-10T06:01:41;101446.16;;;15.62;72.01
15750;BME280;7976;52.526;13.326;2022-07-10T06:04:08;101448.94;;;15.59;71.79
15750;BME280;7976;52.526;13.326;2022-07-10T06:06:36;101447.06;;;15.61;71.80
15750;BME280;7976;52.526;13.326;2022-07-10T06:09:03;101449.59;;;15.64;71.90
15750;BME280;7976;52.526;13.326;2022-07-10T06:11:30;101452.94;;;15.67;71.87
15750;BME280;7976;52.526;13.326;2022-07-10T06:13:57;101450.16;;;15.70;71.80
15750;BME280;7976;52.526;13.326;2022-07-10T06:16:23;101446.50;;;15.73;71.52
15750;BME280;7976;52.526;13.326;2022-07-10T06:18:50;101450.97;;;15.71;71.42
15750;BME280;7976;52.526;13.326;2022-07-10T06:21:17;101446.56;;;15.71;71.17
15750;BME280;7976;52.526;13.326;2022-07-10T06:23:48;101449.06;;;15.74;70.69
15750;BME280;7976;52.526;13.326;2022-07-10T06:26:15;101444.50;;;15.78;70.71
15750;BME280;7976;52.526;13.326;2022-07-10T06:28:42;101443.44;;;15.82;70.81
15750;BME280;7976;52.526;13.326;2022-07-10T06:31:09;101444.31;;;15.82;70.48
15750;BME280;7976;52.526;13.326;2022-07-10T06:33:36;101446.88;;;15.84;70.57
15750;BME280;7976;52.526;13.326;2022-07-10T06:36:03;101448.41;;;15.88;70.48
15750;BME280;7976;52.526;13.326;2022-07-10T06:38:31;101443.78;;;15.93;70.48
15750;BME280;7976;52.526;13.326;2022-07-10T06:40:59;101443.63;;;15.96;70.58
15750;BME280;7976;52.526;13.326;2022-07-10T06:43:26;101453.19;;;15.98;70.33
15750;BME280;7976;52.526;13.326;2022-07-10T06:45:54;101445.13;;;16.01;70.44
15750;BME280;7976;52.526;13.326;2022-07-10T06:48:21;101447.75;;;16.01;69.87
15750;BME280;7976;52.526;13.326;2022-07-10T06:50:47;101449.41;;;16.04;69.79
15750;BME280;7976;52.526;13.326;2022-07-10T06:53:14;101445.69;;;16.08;69.69
15750;BME280;7976;52.526;13.326;2022-07-10T06:55:41;101443.66;;;16.13;69.72
15750;BME280;7976;52.526;13.326;2022-07-10T06:58:10;101446.09;;;16.17;69.42
15750;BME280;7976;52.526;13.326;2022-07-10T07:00:37;101457.34;;;16.21;69.01
15750;BME280;7976;52.526;13.326;2022-07-10T07:03:03;101445.78;;;16.23;68.89
15750;BME280;7976;52.526;13.326;2022-07-10T07:05:30;101446.50;;;16.27;68.58
15750;BME280;7976;52.526;13.326;2022-07-10T07:07:57;101446.50;;;16.27;68.41
15750;BME280;7976;52.526;13.326;2022-07-10T07:10:24;101442.84;;;16.29;68.51
15750;BME280;7976;52.526;13.326;2022-07-10T07:12:51;101444.50;;;16.32;68.20
15750;BME280;7976;52.526;13.326;2022-07-10T07:15:19;101442.38;;;16.39;68.22
15750;BME280;7976;52.526;13.326;2022-07-10T07:17:48;101443.03;;;16.44;68.04
15750;BME280;7976;52.526;13.326;2022-07-10T07:20:33;101435.84;;;16.47;67.73
15750;BME280;7976;52.526;13.326;2022-07-10T07:23:18;101448.56;;;16.56;67.02
15750;BME280;7976;52.526;13.326;2022-07-10T07:25:45;101439.47;;;16.62;66.17
15750;BME280;7976;52.526;13.326;2022-07-10T07:28:13;101435.75;;;16.66;65.46
15750;BME280;7976;52.526;13.326;2022-07-10T07:30:45;101440.81;;;16.70;64.93
15750;BME280;7976;52.526;13.326;2022-07-10T07:33:12;101431.00;;;16.72;64.61
15750;BME280;7976;52.526;13.326;2022-07-10T07:35:39;101429.16;;;16.74;64.47
15750;BME280;7976;52.526;13.326;2022-07-10T07:38:06;101439.56;;;16.77;64.44
15750;BME280;7976;52.526;13.326;2022-07-10T07:40:33;101437.69;;;16.79;64.24
15750;BME280;7976;52.526;13.326;2022-07-10T07:43:02;101445.31;;;16.85;63.94
15750;BME280;7976;52.526;13.326;2022-07-10T07:45:29;101440.78;;;16.87;63.56
15750;BME280;7976;52.526;13.326;2022-07-10T07:47:59;101436.28;;;16.89;63.86
15750;BME280;7976;52.526;13.326;2022-07-10T07:50:30;101438.22;;;17.03;63.15
15750;BME280;7976;52.526;13.326;2022-07-10T07:52:58;101432.03;;;17.19;62.48
15750;BME280;7976;52.526;13.326;2022-07-10T07:55:26;101427.63;;;17.35;62.28
15750;BME280;7976;52.526;13.326;2022-07-10T07:57:55;101424.25;;;17.49;61.26
15750;BME280;7976;52.526;13.326;2022-07-10T08:00:23;101419.81;;;17.65;60.64
15750;BME280;7976;52.526;13.326;2022-07-10T08:02:51;101421.53;;;17.82;60.35
15750;BME280;7976;52.526;13.326;2022-07-10T08:05:21;101419.91;;;17.95;59.36
15750;BME280;7976;52.526;13.326;2022-07-10T08:07:51;101422.28;;;18.15;59.03
15750;BME280;7976;52.526;13.326;2022-07-10T08:10:21;101419.44;;;18.33;57.98
15750;BME280;7976;52.526;13.326;2022-07-10T08:12:49;101425.31;;;18.38;57.56
15750;BME280;7976;52.526;13.326;2022-07-10T08:15:18;101417.78;;;18.31;57.15
15750;BME280;7976;52.526;13.326;2022-07-10T08:17:48;101426.34;;;18.20;57.51
15750;BME280;7976;52.526;13.326;2022-07-10T08:20:16;101419.88;;;18.10;57.22
15750;BME280;7976;52.526;13.326;2022-07-10T08:22:44;101424.53;;;18.07;57.40
15750;BME280;7976;52.526;13.326;2022-07-10T08:25:12;101426.72;;;17.99;57.19
15750;BME280;7976;52.526;13.326;2022-07-10T08:27:39;101413.44;;;17.85;57.74
15750;BME280;7976;52.526;13.326;2022-07-10T08:30:07;101426.22;;;17.77;58.20
15750;BME280;7976;52.526;13.326;2022-07-10T08:32:35;101431.78;;;17.72;58.29
15750;BME280;7976;52.526;13.326;2022-07-10T08:35:04;101439.63;;;17.74;58.58
15750;BME280;7976;52.526;13.326;2022-07-10T08:37:37;101433.16;;;17.79;58.64
15750;BME280;7976;52.526;13.326;2022-07-10T08:40:09;101450.66;;;17.82;58.28
15750;BME280;7976;52.526;13.326;2022-07-10T08:42:38;101444.16;;;17.72;58.84
15750;BME280;7976;52.526;13.326;2022-07-10T08:45:07;101440.25;;;17.63;59.17
15750;BME280;7976;52.526;13.326;2022-07-10T08:47:34;101438.69;;;17.59;59.57
15750;BME280;7976;52.526;13.326;2022-07-10T08:50:02;101446.72;;;17.58;59.53
15750;BME280;7976;52.526;13.326;2022-07-10T08:52:34;101450.16;;;17.60;59.95
15750;BME280;7976;52.526;13.326;2022-07-10T08:55:06;101435.19;;;17.59;60.04
15750;BME280;7976;52.526;13.326;2022-07-10T08:57:34;101441.75;;;17.51;60.13
15750;BME280;7976;52.526;13.326;2022-07-10T09:00:01;101440.06;;;17.50;60.21
15750;BME280;7976;52.526;13.326;2022-07-10T09:02:28;101442.22;;;17.60;60.29
15750;BME280;7976;52.526;13.326;2022-07-10T09:04:55;101444.50;;;17.66;60.28
15750;BME280;7976;52.526;13.326;2022-07-10T09:07:23;101447.94;;;17.68;59.27
15750;BME280;7976;52.526;13.326;2022-07-10T09:09:54;101442.47;;;17.71;58.82
15750;BME280;7976;52.526;13.326;2022-07-10T09:12:24;101451.19;;;17.73;58.57
15750;BME280;7976;52.526;13.326;2022-07-10T09:14:52;101444.53;;;17.81;58.24
15750;BME280;7976;52.526;13.326;2022-07-10T09:17:19;101443.16;;;17.90;57.63
15750;BME280;7976;52.526;13.326;2022-07-10T09:19:46;101445.28;;;17.99;57.22
15750;BME280;7976;52.526;13.326;2022-07-10T09:22:14;101442.53;;;18.00;56.99
15750;BME280;7976;52.526;13.326;2022-07-10T09:24:43;101454.94;;;18.00;56.87
15750;BME280;7976;52.526;13.326;2022-07-10T09:27:13;101440.56;;;18.04;56.87
15750;BME280;7976;52.526;13.326;2022-07-10T09:29:50;101452.34;;;18.14;56.63
15750;BME280;7976;52.526;13.326;2022-07-10T09:32:19;101448.09;;;18.27;56.39
15750;BME280;7976;52.526;13.326;2022-07-10T09:34:48;101445.75;;;18.36;55.95
15750;BME280;7976;52.526;13.326;2022-07-10T09:37:26;101445.19;;;18.47;55.61
15750;BME280;7976;52.526;13.326;2022-07-10T09:39:59;101444.50;;;18.43;55.87
15750;BME280;7976;52.526;13.326;2022-07-10T09:42:31;101441.47;;;18.34;55.84
15750;BME280;7976;52.526;13.326;2022-07-10T09:45:19;101437.63;;;18.24;56.36
15750;BME280;7976;52.526;13.326;2022-07-10T09:47:58;101442.44;;;18.17;56.04
15750;BME280;7976;52.526;13.326;2022-07-10T09:50:30;101445.78;;;18.21;56.39
15750;BME280;7976;52.526;13.326;2022-07-10T09:53:00;101447.41;;;18.23;56.67
15750;BME280;7976;52.526;13.326;2022-07-10T09:55:30;101446.72;;;18.20;56.18
15750;BME280;7976;52.526;13.326;2022-07-10T09:58:00;101443.47;;;18.15;56.16
15750;BME280;7976;52.526;13.326;2022-07-10T10:00:31;101441.84;;;18.12;56.06
15750;BME280;7976;52.526;13.326;2022-07-10T10:03:01;101449.13;;;18.09;56.13
15750;BME280;7976;52.526;13.326;2022-07-10T10:05:36;101443.72;;;18.10;55.75
15750;BME280;7976;52.526;13.326;2022-07-10T10:08:11;101446.97;;;18.15;55.88
15750;BME280;7976;52.526;13.326;2022-07-10T10:10:45;101448.41;;;18.21;55.95
15750;BME280;7976;52.526;13.326;2022-07-10T10:13:17;101452.63;;;18.25;55.82
15750;BME280;7976;52.526;13.326;2022-07-10T10:15:49;101454.22;;;18.27;56.10
15750;BME280;7976;52.526;13.326;2022-07-10T10:18:19;101446.03;;;18.32;56.13
15750;BME280;7976;52.526;13.326;2022-07-10T10:20:48;101456.53;;;18.33;55.86
15750;BME280;7976;52.526;13.326;2022-07-10T10:23:16;101458.31;;;18.33;55.66
15750;BME280;7976;52.526;13.326;2022-07-10T10:25:46;101459.09;;;18.35;55.25
15750;BME280;7976;52.526;13.326;2022-07-10T10:28:16;101456.25;;;18.38;55.22
15750;BME280;7976;52.526;13.326;2022-07-10T10:30:46;101450.47;;;18.47;55.15
15750;BME280;7976;52.526;13.326;2022-07-10T10:33:43;101450.16;;;18.67;54.51
15750;BME280;7976;52.526;13.326;2022-07-10T10:36:14;101454.56;;;18.82;54.39
15750;BME280;7976;52.526;13.326;2022-07-10T10:39:09;101458.84;;;18.99;53.46
15750;BME280;7976;52.526;13.326;2022-07-10T10:41:40;101463.91;;;19.17;52.58
15750;BME280;7976;52.526;13.326;2022-07-10T10:44:30;101464.06;;;19.28;52.39
15750;BME280;7976;52.526;13.326;2022-07-10T10:47:05;101466.06;;;19.25;51.70
15750;BME280;7976;52.526;13.326;2022-07-10T10:49:54;101466.63;;;19.16;51.59
15750;BME280;7976;52.526;13.326;2022-07-10T10:52:23;101463.47;;;19.09;51.39
15750;BME280;7976;52.526;13.326;2022-07-10T10:55:02;101475.63;;;19.13;51.48
15750;BME280;7976;52.526;13.326;2022-07-10T10:57:41;101469.22;;;19.17;51.73
15750;BME280;7976;52.526;13.326;2022-07-10T11:00:32;101475.91;;;19.23;51.75
15750;BME280;7976;52.526;13.326;2022-07-10T11:03:20;101463.13;;;19.15;52.05
15750;BME280;7976;52.526;13.326;2022-07-10T11:05:49;101467.47;;;19.02;52.09
15750;BME280;7976;52.526;13.326;2022-07-10T11:08:42;101456.63;;;18.91;52.20
15750;BME280;7976;52.526;13.326;2022-07-10T11:11:39;101463.00;;;18.89;52.32
15750;BME280;7976;52.526;13.326;2022-07-10T11:14:10;101466.84;;;18.83;52.88
15750;BME280;7976;52.526;13.326;2022-07-10T11:16:47;101471.22;;;18.84;52.90
15750;BME280;7976;52.526;13.326;2022-07-10T11:19:22;101466.66;;;18.86;52.35
15750;BME280;7976;52.526;13.326;2022-07-10T11:21:59;101472.56;;;18.91;52.52
15750;BME280;7976;52.526;13.326;2022-07-10T11:24:42;101469.94;;;19.05;52.12
15750;BME280;7976;52.526;13.326;2022-07-10T11:27:29;101470.03;;;19.18;51.93
15750;BME280;7976;52.526;13.326;2022-07-10T11:30:01;101479.09;;;19.29;51.66
15750;BME280;7976;52.526;13.326;2022-07-10T11:32:28;101475.69;;;19.41;51.63
15750;BME280;7976;52.526;13.326;2022-07-10T11:34:58;101463.72;;;19.48;51.53
15750;BME280;7976;52.526;13.326;2022-07-10T11:37:25;101466.97;;;19.53;51.54
15750;BME280;7976;52.526;13.326;2022-07-10T11:40:10;101465.25;;;19.52;51.33
15750;BME280;7976;52.526;13.326;2022-07-10T11:42:51;101461.66;;;19.53;51.58
15750;BME280;7976;52.526;13.326;2022-07-10T11:45:37;101458.50;;;19.61;51.72
15750;BME280;7976;52.526;13.326;2022-07-10T11:48:05;101466.97;;;19.67;51.83
15750;BME280;7976;52.526;13.326;2022-07-10T11:50:38;101467.03;;;19.66;51.55
15750;BME280;7976;52.526;13.326;2022-07-10T11:53:05;101473.97;;;19.54;51.96
15750;BME280;7976;52.526;13.326;2022-07-10T11:55:32;101472.44;;;19.36;52.06
15750;BME280;7976;52.526;13.326;2022-07-10T11:58:14;101477.75;;;19.22;52.05
15750;BME280;7976;52.526;13.326;2022-07-10T12:00:41;101472.22;;;19.11;52.34
15750;BME280;7976;52.526;13.326;2022-07-10T12:03:19;101466.53;;;19.03;52.46
15750;BME280;7976;52.526;13.326;2022-07-10T12:05:48;101470.88;;;19.04;52.78
15750;BME280;7976;52.526;13.326;2022-07-10T12:08:16;101479.59;;;19.06;51.97
15750;BME280;7976;52.526;13.326;2022-07-10T12:10:45;101475.53;;;19.15;51.49
15750;BME280;7976;52.526;13.326;2022-07-10T12:13:13;101469.50;;;19.27;50.85
15750;BME280;7976;52.526;13.326;2022-07-10T12:15:43;101470.84;;;19.34;51.07
15750;BME280;7976;52.526;13.326;2022-07-10T12:18:16;101467.03;;;19.38;50.63
15750;BME280;7976;52.526;13.326;2022-07-10T12:20:45;101472.75;;;19.32;51.02
15750;BME280;7976;52.526;13.326;2022-07-10T12:23:15;101474.13;;;19.23;50.92
15750;BME280;7976;52.526;13.326;2022-07-10T12:25:44;101473.66;;;19.17;51.34
15750;BME280;7976;52.526;13.326;2022-07-10T12:28:12;101477.53;;;19.11;51.44
15750;BME280;7976;52.526;13.326;2022-07-10T12:30:40;101477.91;;;19.05;51.93
15750;BME280;7976;52.526;13.326;2022-07-10T12:33:10;101473.44;;;19.06;51.96
15750;BME280;7976;52.526;13.326;2022-07-10T12:35:50;101476.75;;;19.09;52.19
15750;BME280;7976;52.526;13.326;2022-07-10T12:38:21;101471.84;;;19.17;52.40
15750;BME280;7976;52.526;13.326;2022-07-10T12:40:49;101471.19;;;19.28;52.15
15750;BME280;7976;52.526;13.326;2022-07-10T12:43:27;101472.44;;;19.36;52.08
15750;BME280;7976;52.526;13.326;2022-07-10T12:46:12;101465.25;;;19.38;51.50
15750;BME280;7976;52.526;13.326;2022-07-10T12:48:42;101467.91;;;19.38;51.22
15750;BME280;7976;52.526;13.326;2022-07-10T12:51:24;101466.00;;;19.40;51.13
15750;BME280;7976;52.526;13.326;2022-07-10T12:53:53;101472.81;;;19.44;51.31
15750;BME280;7976;52.526;13.326;2022-07-10T12:56:33;101474.16;;;19.51;50.83
15750;BME280;7976;52.526;13.326;2022-07-10T12:59:03;101468.34;;;19.73;51.09
15750;BME280;7976;52.526;13.326;2022-07-10T13:01:41;101462.81;;;20.04;50.44
15750;BME280;7976;52.526;13.326;2022-07-10T13:04:08;101465.22;;;20.21;50.31